Flugplatz Soest/Bad Sassendorf (EDLZ)

Hier findest Du alle Informationen zum Flugplatz Soest/Bad Sassendorf (EDLZ).

Informationen für Piloten zum Flugplatz Soest/Bad Sassendorf

Hier findest Du alle relevanten Informationen, die Du als Pilot benötigst, um Soest/Bad Sassendorf anzufliegen.

Flugplatz: Soest/Bad Sassendorf ICAO-Code: EDLZ
Frequenz Turm: 133.465 Mhz GAFOR Gebiet: 32
Frequenz Ground: 133.465 Mhz Mogas: ja
Platzrunde: S 1200 ft Landegebühr: -
Platzhöhe: 394 ft Sunrise: 03:08 Uhr UTC
Pisten: 08/26 - 820 m x 30 m, GRAS Sunset: 19:51 Uhr UTC

Flugwetter am Flugplatz Soest/Bad Sassendorf

Die METAR Information stammen aus EDLP (27.97 km entfernt).

METAR Code:
2024/06/24 08:20
EDLP 240820Z VRB03KT CAVOK 22/14 Q1021

Flugschulen am Flugplatz Soest/Bad Sassendorf

Am Flugplatz Soest/Bad Sassendorf gibt es leider keine Flugschule.

Benachbarte Flugplätze und Flugschulen

Es gibt 21 weitere Flugplätze in einem Umkreis von 50 km um den Flugplatz Soest/Bad Sassendorf.

Jetzt anmelden

Passwort vergessen

Umfrage Archiv

Wie häufig haltet Ihr die Halbkreisflugregel ein?

Eher häufig!
36 %
Immer!
30.7 %
Hin und wieder!
16.7 %
Nie!
9.5 %
Eher selten!
7.2 %
Stimmen: 264 | Diskussion
Anzeige: Roland Aircraft
Statistik Alle Mitglieder

Aktuell sind 38 Besucher online, davon 2 Mitglieder und 36 Gäste.


Mitglieder online:
Steffen_E  b3nn0 

Anzeige: EasyVFR